createdAt,value
2024-03-05T00:01:32.216Z,99703.25
2024-03-05T00:04:33.968Z,99709.81
2024-03-05T00:07:38.456Z,99701.72
2024-03-05T00:10:42.761Z,99700.69
2024-03-05T00:13:44.618Z,99698.56
2024-03-05T00:16:47.707Z,99700.72
2024-03-05T00:19:49.618Z,99710.25
2024-03-05T00:22:52.088Z,99707.00
2024-03-05T00:25:53.871Z,99720.06
2024-03-05T00:28:57.775Z,99701.56
2024-03-05T00:31:59.612Z,99715.44
2024-03-05T00:35:01.386Z,99704.75
2024-03-05T00:38:06.510Z,99711.03
2024-03-05T00:41:10.436Z,99711.03
2024-03-05T00:44:12.261Z,99717.34
2024-03-05T00:47:14.796Z,99711.66
2024-03-05T00:50:16.406Z,99701.19
2024-03-05T00:53:18.652Z,99716.91
2024-03-05T00:56:20.573Z,99706.59
2024-03-05T00:59:22.874Z,99715.16
2024-03-05T01:02:24.776Z,99707.31
2024-03-05T01:05:26.614Z,99705.41
2024-03-05T01:08:29.080Z,99714.53
2024-03-05T01:11:31.136Z,99717.13
2024-03-05T01:14:32.813Z,99716.78
2024-03-05T01:17:34.438Z,99709.78
2024-03-05T01:20:40.089Z,99698.88
2024-03-05T01:23:41.663Z,99700.44
2024-03-05T01:26:44.597Z,99701.63
2024-03-05T01:29:48.551Z,99697.97
2024-03-05T01:32:50.251Z,99700.59
2024-03-05T01:35:53.188Z,99701.75
2024-03-05T01:38:54.803Z,99700.09
2024-03-05T01:41:57.067Z,99698.44
2024-03-05T01:44:59.021Z,99706.25
2024-03-05T01:48:01.968Z,99710.56
2024-03-05T01:51:03.856Z,99711.97
2024-03-05T01:54:07.266Z,99704.38
2024-03-05T01:57:10.844Z,99710.91
2024-03-05T02:00:16.443Z,99712.16
2024-03-05T02:03:18.729Z,99719.31
2024-03-05T02:06:22.736Z,99709.09
2024-03-05T02:09:25.407Z,99713.63
2024-03-05T02:12:27.030Z,99719.09
2024-03-05T02:15:28.713Z,99712.69
2024-03-05T02:18:30.367Z,99716.25
2024-03-05T02:21:32.605Z,99713.50
2024-03-05T02:24:34.408Z,99718.28
2024-03-05T02:27:40.510Z,99710.06
2024-03-05T02:30:42.545Z,99726.72
2024-03-05T02:33:47.102Z,99725.06
2024-03-05T02:36:48.891Z,99727.53
2024-03-05T02:39:50.955Z,99729.81
2024-03-05T02:42:53.845Z,99735.75
2024-03-05T02:45:55.407Z,99748.56
2024-03-05T02:48:56.911Z,99747.50
2024-03-05T02:51:58.528Z,99745.00
2024-03-05T02:55:00.198Z,99764.72
2024-03-05T02:58:01.873Z,99756.50
2024-03-05T03:01:04.048Z,99770.25
2024-03-05T03:04:06.735Z,99766.44
2024-03-05T03:07:08.632Z,99766.69
2024-03-05T03:10:12.341Z,99775.16
2024-03-05T03:13:14.111Z,99761.84
2024-03-05T03:16:15.969Z,99766.13
2024-03-05T03:19:17.735Z,99773.53
2024-03-05T03:22:19.432Z,99778.75
2024-03-05T03:25:21.093Z,99783.75
2024-03-05T03:28:23.491Z,99782.28
2024-03-05T03:31:27.040Z,99777.78
2024-03-05T03:34:28.748Z,99778.03
2024-03-05T03:37:30.769Z,99774.81
2024-03-05T03:40:35.238Z,99783.94
2024-03-05T03:43:37.086Z,99778.94
2024-03-05T03:46:39.012Z,99777.38
2024-03-05T03:49:49.310Z,99778.22
2024-03-05T03:52:51.072Z,99778.25
2024-03-05T03:55:53.088Z,99783.25
2024-03-05T03:58:54.786Z,99783.34
2024-03-05T04:01:56.488Z,99780.97
2024-03-05T04:04:58.171Z,99780.84
2024-03-05T04:08:04.332Z,99776.09
2024-03-05T04:11:07.590Z,99780.41
2024-03-05T04:14:09.759Z,99775.66
2024-03-05T04:17:11.344Z,99787.41
2024-03-05T04:20:16.121Z,99787.91
2024-03-05T04:23:19.163Z,99787.19
2024-03-05T04:26:28.085Z,99790.16
2024-03-05T04:29:31.524Z,99781.81
2024-03-05T04:32:34.385Z,99791.78
2024-03-05T04:35:37.523Z,99791.69
2024-03-05T04:38:42.214Z,99795.94
2024-03-05T04:41:46.716Z,99795.44
2024-03-05T04:44:48.343Z,99801.22
2024-03-05T04:47:51.247Z,99784.69
2024-03-05T04:50:53.478Z,99795.09
2024-03-05T04:53:55.239Z,99790.91
2024-03-05T04:57:01.996Z,99795.31
2024-03-05T05:00:04.046Z,99794.50
2024-03-05T05:03:07.442Z,99782.34
2024-03-05T05:06:09.092Z,99785.88
2024-03-05T05:09:10.670Z,99794.09
2024-03-05T05:12:13.224Z,99797.75
2024-03-05T05:15:15.563Z,99807.44
2024-03-05T05:18:17.474Z,99812.25
2024-03-05T05:21:19.243Z,99799.25
2024-03-05T05:24:20.962Z,99809.38
2024-03-05T05:27:23.137Z,99804.97
2024-03-05T05:30:25.182Z,99810.91
2024-03-05T05:33:26.998Z,99814.00
2024-03-05T05:36:28.688Z,99813.06
2024-03-05T05:39:30.346Z,99823.66
2024-03-05T05:42:31.997Z,99813.31
2024-03-05T05:45:33.693Z,99824.00
2024-03-05T05:48:36.729Z,99829.69
2024-03-05T05:51:39.502Z,99827.97
2024-03-05T05:54:44.934Z,99834.41
2024-03-05T05:57:48.800Z,99839.59
2024-03-05T06:00:51.859Z,99836.91
2024-03-05T06:03:54.537Z,99841.53
2024-03-05T06:06:56.183Z,99838.22
2024-03-05T06:09:57.809Z,99835.59
2024-03-05T06:12:59.800Z,99833.28
2024-03-05T06:16:01.479Z,99852.09
2024-03-05T06:19:03.164Z,99848.38
2024-03-05T06:22:05.028Z,99848.69
2024-03-05T06:25:10.600Z,99858.16
2024-03-05T06:28:13.479Z,99862.06
2024-03-05T06:31:17.658Z,99861.44
2024-03-05T06:34:20.158Z,99854.44
2024-03-05T06:37:21.745Z,99872.31
2024-03-05T06:40:26.615Z,99872.50
2024-03-05T06:43:37.762Z,99882.06
2024-03-05T06:46:42.876Z,99872.56
2024-03-05T06:49:44.684Z,99881.06
2024-03-05T06:53:18.648Z,99884.94
2024-03-05T06:56:38.678Z,99891.56
2024-03-05T06:59:40.257Z,99892.97
2024-03-05T07:02:45.053Z,99894.66
2024-03-05T07:05:46.657Z,99892.47
2024-03-05T07:08:49.944Z,99902.03
2024-03-05T07:11:51.778Z,99895.53
2024-03-05T07:14:53.714Z,99892.91
2024-03-05T07:17:55.442Z,99901.09
2024-03-05T07:20:57.401Z,99900.94
2024-03-05T07:24:00.588Z,99905.63
2024-03-05T07:27:08.426Z,99898.25
2024-03-05T07:30:13.363Z,99902.75
2024-03-05T07:33:15.015Z,99906.59
2024-03-05T07:36:16.800Z,99908.88
2024-03-05T07:39:18.416Z,99915.09
2024-03-05T07:42:20.067Z,99916.44
2024-03-05T07:45:23.162Z,99918.59
2024-03-05T07:48:24.725Z,99928.66
2024-03-05T07:51:29.284Z,99919.28
2024-03-05T07:54:35.161Z,99935.22
2024-03-05T07:57:41.013Z,99937.25
2024-03-05T08:00:42.627Z,99938.13
2024-03-05T08:03:44.276Z,99939.16
2024-03-05T08:06:45.972Z,99943.13
2024-03-05T08:09:48.089Z,99943.75
2024-03-05T08:12:51.427Z,99946.16
2024-03-05T08:15:55.203Z,99946.19
2024-03-05T08:18:56.814Z,99949.06
2024-03-05T08:21:58.386Z,99958.34
2024-03-05T08:24:59.958Z,99958.56
2024-03-05T08:28:01.575Z,99961.66
2024-03-05T08:31:03.228Z,99961.44
2024-03-05T08:34:05.566Z,99958.34
2024-03-05T08:37:09.514Z,99964.28
2024-03-05T08:40:14.712Z,99959.84
2024-03-05T08:43:16.412Z,99960.53
2024-03-05T08:46:18.032Z,99967.00
2024-03-05T08:49:20.009Z,99964.81
2024-03-05T08:52:21.693Z,99970.34
2024-03-05T08:55:24.503Z,99964.19
2024-03-05T08:58:26.198Z,99973.94
2024-03-05T09:01:29.429Z,99985.81
2024-03-05T09:04:31.689Z,99970.13
2024-03-05T09:07:33.368Z,99972.19
2024-03-05T09:10:35.679Z,99981.81
2024-03-05T09:13:41.845Z,99990.47
2024-03-05T09:16:44.011Z,99985.69
2024-03-05T09:19:45.835Z,99984.19
2024-03-05T09:22:47.996Z,99983.22
2024-03-05T09:25:49.905Z,99992.81
2024-03-05T09:28:51.601Z,99983.91
2024-03-05T09:31:53.231Z,99984.75
2024-03-05T09:34:54.927Z,99990.53
2024-03-05T09:37:57.620Z,99984.22
2024-03-05T09:41:00.284Z,99994.16
2024-03-05T09:44:04.675Z,99992.13
2024-03-05T09:47:07.820Z,99991.94
2024-03-05T09:50:12.913Z,99984.41
2024-03-05T09:53:15.876Z,99990.50
2024-03-05T09:56:17.811Z,99989.28
2024-03-05T09:59:20.850Z,99990.50
2024-03-05T10:02:25.887Z,99994.78
2024-03-05T10:05:28.978Z,99989.59
2024-03-05T10:08:30.976Z,100003.06
2024-03-05T10:11:32.753Z,99996.81
2024-03-05T10:14:36.069Z,99999.19
2024-03-05T10:17:43.737Z,100000.16
2024-03-05T10:20:45.365Z,99991.16
2024-03-05T10:23:48.887Z,99994.91
2024-03-05T10:26:51.094Z,100005.31
2024-03-05T10:29:52.932Z,100002.41
2024-03-05T10:33:05.675Z,100005.47
2024-03-05T10:36:07.529Z,99996.22
2024-03-05T10:39:10.158Z,99996.56
2024-03-05T10:42:14.029Z,99993.75
2024-03-05T10:45:16.436Z,99997.84
2024-03-05T10:48:20.063Z,99992.03
2024-03-05T10:51:25.194Z,99996.88
2024-03-05T10:54:28.884Z,99998.03
2024-03-05T10:57:30.566Z,99986.25
2024-03-05T11:00:36.459Z,99989.38
2024-03-05T11:03:41.392Z,99988.38
2024-03-05T11:06:43.866Z,99987.97
2024-03-05T11:09:46.511Z,99995.75
2024-03-05T11:12:49.038Z,99983.19
2024-03-05T11:15:51.957Z,99978.41
2024-03-05T11:18:53.605Z,99982.63
2024-03-05T11:21:56.340Z,99981.38
2024-03-05T11:25:01.322Z,99987.34
2024-03-05T11:28:02.955Z,99981.59
2024-03-05T11:31:21.225Z,99980.16
2024-03-05T11:34:23.943Z,99973.16
2024-03-05T11:37:25.653Z,99977.06
2024-03-05T11:40:35.629Z,99977.63
2024-03-05T11:43:38.425Z,99983.50
2024-03-05T11:46:42.921Z,99980.56
2024-03-05T11:49:44.585Z,99979.19
2024-03-05T11:52:46.933Z,99975.47
2024-03-05T11:55:52.691Z,99971.09
2024-03-05T11:58:57.474Z,99965.75
2024-03-05T12:02:00.181Z,99962.66
2024-03-05T12:05:06.405Z,99963.25
2024-03-05T12:08:08.956Z,99964.28
2024-03-05T12:11:10.827Z,99969.38
2024-03-05T12:14:12.733Z,99969.97
2024-03-05T12:17:15.314Z,99962.75
2024-03-05T12:20:20.982Z,99969.94
2024-03-05T12:23:40.782Z,99959.69
2024-03-05T12:26:45.167Z,99956.69
2024-03-05T12:29:46.869Z,99968.81
2024-03-05T12:32:55.756Z,99954.53
2024-03-05T12:35:59.419Z,99948.31
2024-03-05T12:39:01.106Z,99949.78
2024-03-05T12:42:15.088Z,99942.47
2024-03-05T12:45:18.446Z,99957.13
2024-03-05T12:48:26.950Z,99957.03
2024-03-05T12:51:28.656Z,99949.44
2024-03-05T12:54:30.304Z,99958.94
2024-03-05T12:57:33.945Z,99948.78
2024-03-05T13:00:36.450Z,99956.47
2024-03-05T13:03:38.875Z,99953.81
2024-03-05T13:06:40.525Z,99952.97
2024-03-05T13:09:42.180Z,99945.75
2024-03-05T13:12:43.822Z,99954.19
2024-03-05T13:15:45.469Z,99951.91
2024-03-05T13:18:49.468Z,99952.56
2024-03-05T13:21:51.257Z,99950.50
2024-03-05T13:24:56.076Z,99951.31
2024-03-05T13:27:57.988Z,99956.72
2024-03-05T13:31:00.067Z,99957.72
2024-03-05T13:34:05.721Z,99959.38
2024-03-05T13:37:07.798Z,99956.69
2024-03-05T13:40:14.167Z,99948.69
2024-03-05T13:43:15.776Z,99950.00
2024-03-05T13:46:17.627Z,99949.59
2024-03-05T13:49:20.304Z,99956.22
2024-03-05T13:52:23.718Z,99948.22
2024-03-05T13:55:27.700Z,99952.72
2024-03-05T13:58:29.645Z,99956.31
2024-03-05T14:01:32.489Z,99949.78
2024-03-05T14:04:34.481Z,99954.25
2024-03-05T14:07:36.132Z,99965.47
2024-03-05T14:10:38.795Z,99956.09
2024-03-05T14:13:41.357Z,99960.50
2024-03-05T14:16:43.040Z,99966.47
2024-03-05T14:19:45.182Z,99965.13
2024-03-05T14:22:47.667Z,99966.75
2024-03-05T14:25:49.556Z,99962.44
2024-03-05T14:28:51.430Z,99972.09
2024-03-05T14:31:54.440Z,99964.72
2024-03-05T14:34:58.653Z,99973.94
2024-03-05T14:38:00.754Z,99966.56
2024-03-05T14:41:02.592Z,99977.47
2024-03-05T14:44:06.069Z,99977.75
2024-03-05T14:47:07.685Z,99980.59
2024-03-05T14:50:09.752Z,99987.88
2024-03-05T14:53:11.579Z,99984.19
2024-03-05T14:56:14.090Z,99984.59
2024-03-05T14:59:15.808Z,99988.66
2024-03-05T15:02:17.535Z,99990.88
2024-03-05T15:05:20.440Z,99996.56
2024-03-05T15:08:22.253Z,99985.00
2024-03-05T15:11:24.054Z,99991.19
2024-03-05T15:14:25.766Z,99983.91
2024-03-05T15:17:27.435Z,100000.06
2024-03-05T15:20:29.241Z,99996.19
2024-03-05T15:23:30.839Z,100000.13
2024-03-05T15:26:33.169Z,100005.31
2024-03-05T15:29:34.831Z,100008.94
2024-03-05T15:32:36.532Z,100009.00
2024-03-05T15:35:38.298Z,100015.66
2024-03-05T15:38:39.882Z,100019.66
2024-03-05T15:41:43.202Z,100024.97
2024-03-05T15:44:44.817Z,100026.72
2024-03-05T15:47:47.600Z,100038.31
2024-03-05T15:50:49.355Z,100038.81
2024-03-05T15:53:51.194Z,100032.38
2024-03-05T15:56:59.216Z,100032.09
2024-03-05T16:00:12.777Z,100046.44
2024-03-05T16:03:15.198Z,100042.03
2024-03-05T16:06:19.508Z,100042.94
2024-03-05T16:09:21.626Z,100042.38
2024-03-05T16:12:25.419Z,100054.09
2024-03-05T16:15:28.402Z,100058.91
2024-03-05T16:18:30.145Z,100066.88
2024-03-05T16:21:34.464Z,100071.38
2024-03-05T16:24:36.358Z,100075.34
2024-03-05T16:27:47.116Z,100073.03
2024-03-05T16:30:49.419Z,100087.09
2024-03-05T16:33:51.140Z,100085.28
2024-03-05T16:36:53.044Z,100086.22
2024-03-05T16:39:54.790Z,100101.59
2024-03-05T16:42:58.417Z,100098.25
2024-03-05T16:46:01.220Z,100105.00
2024-03-05T16:49:04.855Z,100099.50
2024-03-05T16:52:07.733Z,100102.72
2024-03-05T16:55:13.248Z,100107.84
2024-03-05T16:58:17.935Z,100112.56
2024-03-05T17:01:21.240Z,100121.06
2024-03-05T17:04:27.695Z,100124.78
2024-03-05T17:07:32.194Z,100125.28
2024-03-05T17:10:33.965Z,100134.28
2024-03-05T17:13:38.189Z,100126.44
2024-03-05T17:16:46.154Z,100137.94
2024-03-05T17:19:48.213Z,100134.38
2024-03-05T17:22:56.594Z,100141.78
2024-03-05T17:25:58.782Z,100139.13
2024-03-05T17:29:06.667Z,100126.75
2024-03-05T17:32:08.588Z,100140.53
2024-03-05T17:35:13.689Z,100138.13
2024-03-05T17:38:15.730Z,100135.78
2024-03-05T17:41:17.407Z,100144.69
2024-03-05T17:44:19.123Z,100145.16
2024-03-05T17:47:20.886Z,100147.69
2024-03-05T17:50:23.285Z,100153.56
2024-03-05T17:53:24.967Z,100146.88
2024-03-05T17:56:26.557Z,100146.59
2024-03-05T17:59:28.207Z,100150.50
2024-03-05T18:02:29.797Z,100146.41
2024-03-05T18:05:31.862Z,100142.56
2024-03-05T18:08:33.579Z,100150.75
2024-03-05T18:11:35.300Z,100155.78
2024-03-05T18:14:37.652Z,100157.06
2024-03-05T18:17:40.569Z,100163.59
2024-03-05T18:20:44.559Z,100170.66
2024-03-05T18:23:46.400Z,100174.84
2024-03-05T18:26:48.412Z,100174.16
2024-03-05T18:29:56.795Z,100162.91
2024-03-05T18:33:00.229Z,100164.31
2024-03-05T18:36:03.781Z,100172.06
2024-03-05T18:39:09.483Z,100176.91
2024-03-05T18:42:11.246Z,100172.34
2024-03-05T18:45:16.995Z,100178.31
2024-03-05T18:48:19.011Z,100169.59
2024-03-05T18:51:20.800Z,100175.41
2024-03-05T18:54:23.406Z,100175.56
2024-03-05T18:57:25.255Z,100176.25
2024-03-05T19:00:27.848Z,100180.53
2024-03-05T19:03:29.628Z,100184.88
2024-03-05T19:06:31.408Z,100180.13
2024-03-05T19:09:33.214Z,100193.16
2024-03-05T19:12:37.482Z,100189.28
2024-03-05T19:15:39.122Z,100193.13
2024-03-05T19:18:41.209Z,100194.66
2024-03-05T19:21:47.776Z,100190.38
2024-03-05T19:24:49.647Z,100183.84
2024-03-05T19:27:52.103Z,100184.25
2024-03-05T19:30:54.102Z,100196.31
2024-03-05T19:33:55.869Z,100198.25
2024-03-05T19:36:58.328Z,100197.28
2024-03-05T19:40:01.162Z,100187.56
2024-03-05T19:43:02.835Z,100186.22
2024-03-05T19:46:05.469Z,100196.31
2024-03-05T19:49:07.622Z,100185.88
2024-03-05T19:52:09.267Z,100192.38
2024-03-05T19:55:14.078Z,100189.72
2024-03-05T19:58:17.472Z,100187.16
2024-03-05T20:01:19.419Z,100188.66
2024-03-05T20:04:22.232Z,100189.53
2024-03-05T20:07:23.802Z,100178.19
2024-03-05T20:10:26.383Z,100186.78
2024-03-05T20:13:28.398Z,100187.94
2024-03-05T20:16:30.069Z,100189.50
2024-03-05T20:19:35.471Z,100188.75
2024-03-05T20:22:41.242Z,100183.94
2024-03-05T20:25:43.062Z,100189.38
2024-03-05T20:28:49.825Z,100191.41
2024-03-05T20:31:53.397Z,100188.59
2024-03-05T20:34:57.031Z,100186.22
2024-03-05T20:38:00.106Z,100182.84
2024-03-05T20:41:02.341Z,100188.78
2024-03-05T20:44:05.011Z,100193.91
2024-03-05T20:47:09.170Z,100191.03
2024-03-05T20:50:13.354Z,100192.00
2024-03-05T20:53:15.429Z,100187.84
2024-03-05T20:56:17.137Z,100188.94
2024-03-05T20:59:19.979Z,100184.75
2024-03-05T21:02:22.729Z,100183.53
2024-03-05T21:05:24.946Z,100185.13
2024-03-05T21:08:26.661Z,100194.13
2024-03-05T21:11:28.369Z,100203.34
2024-03-05T21:14:30.252Z,100198.69
2024-03-05T21:17:33.437Z,100188.41
2024-03-05T21:20:36.950Z,100182.50
2024-03-05T21:23:38.868Z,100192.75
2024-03-05T21:26:54.427Z,100202.38
2024-03-05T21:30:06.878Z,100198.59
2024-03-05T21:33:08.583Z,100204.16
2024-03-05T21:36:10.238Z,100203.53
2024-03-05T21:39:14.734Z,100210.53
2024-03-05T21:42:17.562Z,100211.50
2024-03-05T21:45:19.415Z,100206.16
2024-03-05T21:48:21.064Z,100212.38
2024-03-05T21:51:22.739Z,100207.69
2024-03-05T21:54:24.729Z,100216.03
2024-03-05T21:57:26.536Z,100219.25
2024-03-05T22:00:29.699Z,100217.69
2024-03-05T22:03:31.463Z,100224.75
2024-03-05T22:06:33.449Z,100229.19
2024-03-05T22:09:35.373Z,100219.16
2024-03-05T22:12:41.833Z,100218.91
2024-03-05T22:15:44.247Z,100220.81
2024-03-05T22:18:46.890Z,100225.84
2024-03-05T22:21:48.536Z,100226.28
2024-03-05T22:24:50.194Z,100224.16
2024-03-05T22:27:52.024Z,100220.97
2024-03-05T22:30:55.558Z,100224.53
2024-03-05T22:33:57.167Z,100218.44
2024-03-05T22:36:58.968Z,100221.16
2024-03-05T22:40:00.539Z,100222.66
2024-03-05T22:43:02.172Z,100234.47
2024-03-05T22:46:04.581Z,100235.03
2024-03-05T22:49:06.274Z,100237.56
2024-03-05T22:52:08.061Z,100224.47
2024-03-05T22:55:10.060Z,100232.91
2024-03-05T22:58:11.752Z,100242.59
2024-03-05T23:01:13.388Z,100248.13
2024-03-05T23:04:15.039Z,100247.47
2024-03-05T23:07:16.723Z,100246.31
2024-03-05T23:10:18.433Z,100251.72
2024-03-05T23:13:20.272Z,100254.34
2024-03-05T23:16:21.882Z,100255.19
2024-03-05T23:19:23.858Z,100259.84
2024-03-05T23:22:25.601Z,100270.09
2024-03-05T23:25:27.806Z,100245.88
2024-03-05T23:28:30.272Z,100266.16
2024-03-05T23:31:31.965Z,100266.88
2024-03-05T23:34:35.477Z,100265.81
2024-03-05T23:37:37.650Z,100259.97
2024-03-05T23:40:40.055Z,100258.03
2024-03-05T23:43:41.975Z,100261.88
2024-03-05T23:46:43.818Z,100252.59
2024-03-05T23:49:45.602Z,100258.53
2024-03-05T23:52:47.677Z,100256.13
2024-03-05T23:55:49.567Z,100251.13
2024-03-05T23:58:51.665Z,100256.88
